sensor_id;sensor_type;location;lat;lon;timestamp;temperature;humidity
21815;DHT22;11069;48.988;8.450;2022-09-06T00:02:13;17.60;99.90
21815;DHT22;11069;48.988;8.450;2022-09-06T00:04:38;17.50;99.90
21815;DHT22;11069;48.988;8.450;2022-09-06T00:07:04;17.30;99.90
21815;DHT22;11069;48.988;8.450;2022-09-06T00:09:30;17.30;99.90
21815;DHT22;11069;48.988;8.450;2022-09-06T00:11:55;17.30;99.90
21815;DHT22;11069;48.988;8.450;2022-09-06T00:14:21;17.20;99.90
21815;DHT22;11069;48.988;8.450;2022-09-06T00:16:46;17.20;99.90
21815;DHT22;11069;48.988;8.450;2022-09-06T00:19:12;17.30;99.90
21815;DHT22;11069;48.988;8.450;2022-09-06T00:21:38;17.30;99.90
21815;DHT22;11069;48.988;8.450;2022-09-06T00:24:03;17.30;99.90
21815;DHT22;11069;48.988;8.450;2022-09-06T00:26:29;17.30;99.90
21815;DHT22;11069;48.988;8.450;2022-09-06T00:28:54;17.20;99.90
21815;DHT22;11069;48.988;8.450;2022-09-06T00:31:22;17.20;99.90
21815;DHT22;11069;48.988;8.450;2022-09-06T00:33:49;17.20;99.90
21815;DHT22;11069;48.988;8.450;2022-09-06T00:36:14;17.20;99.90
21815;DHT22;11069;48.988;8.450;2022-09-06T00:38:40;17.20;99.90
21815;DHT22;11069;48.988;8.450;2022-09-06T00:41:08;17.20;99.90
21815;DHT22;11069;48.988;8.450;2022-09-06T00:43:35;17.10;99.90
21815;DHT22;11069;48.988;8.450;2022-09-06T00:46:01;17.00;99.90
21815;DHT22;11069;48.988;8.450;2022-09-06T00:48:27;17.10;99.90
21815;DHT22;11069;48.988;8.450;2022-09-06T00:50:55;17.20;99.90
21815;DHT22;11069;48.988;8.450;2022-09-06T00:53:22;17.20;99.90
21815;DHT22;11069;48.988;8.450;2022-09-06T00:55:48;17.40;99.90
21815;DHT22;11069;48.988;8.450;2022-09-06T00:58:14;17.40;99.90
21815;DHT22;11069;48.988;8.450;2022-09-06T01:00:40;17.30;99.90
21815;DHT22;11069;48.988;8.450;2022-09-06T01:03:06;17.30;99.90
21815;DHT22;11069;48.988;8.450;2022-09-06T01:05:52;17.40;99.90
21815;DHT22;11069;48.988;8.450;2022-09-06T01:08:33;17.40;99.90
21815;DHT22;11069;48.988;8.450;2022-09-06T01:11:38;17.30;99.90
21815;DHT22;11069;48.988;8.450;2022-09-06T01:19:55;17.50;99.90
21815;DHT22;11069;48.988;8.450;2022-09-06T01:28:35;17.90;99.90
21815;DHT22;11069;48.988;8.450;2022-09-06T01:31:20;18.00;99.90
21815;DHT22;11069;48.988;8.450;2022-09-06T01:36:50;18.10;99.90
21815;DHT22;11069;48.988;8.450;2022-09-06T01:41:58;17.90;99.90
21815;DHT22;11069;48.988;8.450;2022-09-06T01:44:26;17.80;99.90
21815;DHT22;11069;48.988;8.450;2022-09-06T01:47:10;17.70;99.90
21815;DHT22;11069;48.988;8.450;2022-09-06T01:49:55;17.70;99.90
21815;DHT22;11069;48.988;8.450;2022-09-06T02:00:22;17.70;99.90
21815;DHT22;11069;48.988;8.450;2022-09-06T02:03:08;17.60;99.90
21815;DHT22;11069;48.988;8.450;2022-09-06T02:08:16;17.60;99.90
21815;DHT22;11069;48.988;8.450;2022-09-06T02:11:03;17.60;99.90
21815;DHT22;11069;48.988;8.450;2022-09-06T02:13:34;17.50;99.90
21815;DHT22;11069;48.988;8.450;2022-09-06T02:16:04;17.50;99.90
21815;DHT22;11069;48.988;8.450;2022-09-06T02:18:41;17.50;99.90
21815;DHT22;11069;48.988;8.450;2022-09-06T02:21:10;17.50;99.90
21815;DHT22;11069;48.988;8.450;2022-09-06T02:23:38;17.50;99.90
21815;DHT22;11069;48.988;8.450;2022-09-06T02:26:10;17.50;99.90
21815;DHT22;11069;48.988;8.450;2022-09-06T02:28:37;17.50;99.90
21815;DHT22;11069;48.988;8.450;2022-09-06T02:31:11;17.40;99.90
21815;DHT22;11069;48.988;8.450;2022-09-06T02:33:40;17.40;99.90
21815;DHT22;11069;48.988;8.450;2022-09-06T02:36:11;17.40;99.90
21815;DHT22;11069;48.988;8.450;2022-09-06T02:38:38;17.60;99.90
21815;DHT22;11069;48.988;8.450;2022-09-06T02:41:06;17.60;99.90
21815;DHT22;11069;48.988;8.450;2022-09-06T02:43:31;17.60;99.90
21815;DHT22;11069;48.988;8.450;2022-09-06T02:45:57;17.60;99.90
21815;DHT22;11069;48.988;8.450;2022-09-06T02:48:23;17.50;99.90
21815;DHT22;11069;48.988;8.450;2022-09-06T02:50:48;17.40;99.90
21815;DHT22;11069;48.988;8.450;2022-09-06T02:53:15;17.30;99.90
21815;DHT22;11069;48.988;8.450;2022-09-06T02:55:41;17.50;99.90
21815;DHT22;11069;48.988;8.450;2022-09-06T02:58:09;17.30;99.90
21815;DHT22;11069;48.988;8.450;2022-09-06T03:00:35;17.30;99.90
21815;DHT22;11069;48.988;8.450;2022-09-06T03:03:01;17.40;99.90
21815;DHT22;11069;48.988;8.450;2022-09-06T03:05:28;17.40;99.90
21815;DHT22;11069;48.988;8.450;2022-09-06T03:07:55;17.30;99.90
21815;DHT22;11069;48.988;8.450;2022-09-06T03:10:21;17.40;99.90
21815;DHT22;11069;48.988;8.450;2022-09-06T03:12:47;17.40;99.90
21815;DHT22;11069;48.988;8.450;2022-09-06T03:15:14;17.40;99.90
21815;DHT22;11069;48.988;8.450;2022-09-06T03:17:40;17.30;99.90
21815;DHT22;11069;48.988;8.450;2022-09-06T03:20:07;17.20;99.90
21815;DHT22;11069;48.988;8.450;2022-09-06T03:22:37;17.20;99.90
21815;DHT22;11069;48.988;8.450;2022-09-06T03:25:04;17.20;99.90
21815;DHT22;11069;48.988;8.450;2022-09-06T03:27:30;17.30;99.90
21815;DHT22;11069;48.988;8.450;2022-09-06T03:29:56;17.10;99.90
21815;DHT22;11069;48.988;8.450;2022-09-06T03:32:21;17.10;99.90
21815;DHT22;11069;48.988;8.450;2022-09-06T03:34:47;17.00;99.90
21815;DHT22;11069;48.988;8.450;2022-09-06T03:37:13;17.00;99.90
21815;DHT22;11069;48.988;8.450;2022-09-06T03:39:38;17.00;99.90
21815;DHT22;11069;48.988;8.450;2022-09-06T03:42:04;17.00;99.90
21815;DHT22;11069;48.988;8.450;2022-09-06T03:44:29;17.00;99.90
21815;DHT22;11069;48.988;8.450;2022-09-06T03:46:55;16.90;99.90
21815;DHT22;11069;48.988;8.450;2022-09-06T03:49:21;16.80;99.90
21815;DHT22;11069;48.988;8.450;2022-09-06T03:51:46;16.70;99.90
21815;DHT22;11069;48.988;8.450;2022-09-06T03:54:12;16.90;99.90
21815;DHT22;11069;48.988;8.450;2022-09-06T03:56:37;16.80;99.90
21815;DHT22;11069;48.988;8.450;2022-09-06T03:59:03;16.80;99.90
21815;DHT22;11069;48.988;8.450;2022-09-06T04:01:29;16.70;99.90
21815;DHT22;11069;48.988;8.450;2022-09-06T04:03:54;16.80;99.90
21815;DHT22;11069;48.988;8.450;2022-09-06T04:06:20;16.80;99.90
21815;DHT22;11069;48.988;8.450;2022-09-06T04:08:45;16.90;99.90
21815;DHT22;11069;48.988;8.450;2022-09-06T04:11:11;16.80;99.90
21815;DHT22;11069;48.988;8.450;2022-09-06T04:13:37;16.90;99.90
21815;DHT22;11069;48.988;8.450;2022-09-06T04:16:03;16.70;99.90
21815;DHT22;11069;48.988;8.450;2022-09-06T04:18:29;16.70;99.90
21815;DHT22;11069;48.988;8.450;2022-09-06T04:20:56;16.70;99.90
21815;DHT22;11069;48.988;8.450;2022-09-06T04:23:23;16.70;99.90
21815;DHT22;11069;48.988;8.450;2022-09-06T04:25:52;16.80;99.90
21815;DHT22;11069;48.988;8.450;2022-09-06T04:28:18;16.90;99.90
21815;DHT22;11069;48.988;8.450;2022-09-06T04:30:45;16.90;99.90
21815;DHT22;11069;48.988;8.450;2022-09-06T04:33:15;16.90;99.90
21815;DHT22;11069;48.988;8.450;2022-09-06T04:35:41;16.90;99.90
21815;DHT22;11069;48.988;8.450;2022-09-06T04:38:06;16.80;99.90
21815;DHT22;11069;48.988;8.450;2022-09-06T04:40:32;16.80;99.90
21815;DHT22;11069;48.988;8.450;2022-09-06T04:42:58;16.80;99.90
21815;DHT22;11069;48.988;8.450;2022-09-06T04:45:23;16.80;99.90
21815;DHT22;11069;48.988;8.450;2022-09-06T04:47:49;16.70;99.90
21815;DHT22;11069;48.988;8.450;2022-09-06T04:50:16;16.70;99.90
21815;DHT22;11069;48.988;8.450;2022-09-06T04:52:41;16.60;99.90
21815;DHT22;11069;48.988;8.450;2022-09-06T04:55:07;16.60;99.90
21815;DHT22;11069;48.988;8.450;2022-09-06T04:57:33;16.60;99.90
21815;DHT22;11069;48.988;8.450;2022-09-06T04:59:58;16.50;99.90
21815;DHT22;11069;48.988;8.450;2022-09-06T05:02:24;16.60;99.90
21815;DHT22;11069;48.988;8.450;2022-09-06T05:04:49;16.60;99.90
21815;DHT22;11069;48.988;8.450;2022-09-06T05:07:17;16.70;99.90
21815;DHT22;11069;48.988;8.450;2022-09-06T05:09:43;16.70;99.90
21815;DHT22;11069;48.988;8.450;2022-09-06T05:12:08;16.80;99.90
21815;DHT22;11069;48.988;8.450;2022-09-06T05:14:34;16.80;99.90
21815;DHT22;11069;48.988;8.450;2022-09-06T05:17:00;16.70;99.90
21815;DHT22;11069;48.988;8.450;2022-09-06T05:19:25;16.70;99.90
21815;DHT22;11069;48.988;8.450;2022-09-06T05:21:51;16.70;99.90
21815;DHT22;11069;48.988;8.450;2022-09-06T05:24:17;16.80;99.90
21815;DHT22;11069;48.988;8.450;2022-09-06T05:26:42;16.90;99.90
21815;DHT22;11069;48.988;8.450;2022-09-06T05:29:08;16.80;99.90
21815;DHT22;11069;48.988;8.450;2022-09-06T05:31:34;16.90;99.90
21815;DHT22;11069;48.988;8.450;2022-09-06T05:34:00;17.00;99.90
21815;DHT22;11069;48.988;8.450;2022-09-06T05:36:27;17.00;99.90
21815;DHT22;11069;48.988;8.450;2022-09-06T05:38:54;17.10;99.90
21815;DHT22;11069;48.988;8.450;2022-09-06T05:41:21;17.10;99.90
21815;DHT22;11069;48.988;8.450;2022-09-06T05:43:46;17.20;99.90
21815;DHT22;11069;48.988;8.450;2022-09-06T05:46:12;17.20;99.90
21815;DHT22;11069;48.988;8.450;2022-09-06T05:48:39;17.30;99.90
21815;DHT22;11069;48.988;8.450;2022-09-06T05:51:07;17.40;99.90
21815;DHT22;11069;48.988;8.450;2022-09-06T05:53:40;17.40;99.90
21815;DHT22;11069;48.988;8.450;2022-09-06T05:56:07;17.50;99.90
21815;DHT22;11069;48.988;8.450;2022-09-06T05:58:34;17.50;99.90
21815;DHT22;11069;48.988;8.450;2022-09-06T06:01:19;17.50;99.90
21815;DHT22;11069;48.988;8.450;2022-09-06T06:04:02;17.60;99.90
21815;DHT22;11069;48.988;8.450;2022-09-06T06:06:30;17.70;99.90
21815;DHT22;11069;48.988;8.450;2022-09-06T06:08:56;17.70;99.90
21815;DHT22;11069;48.988;8.450;2022-09-06T06:11:23;17.80;99.90
21815;DHT22;11069;48.988;8.450;2022-09-06T06:13:50;17.90;99.90
21815;DHT22;11069;48.988;8.450;2022-09-06T06:16:17;18.00;99.90
21815;DHT22;11069;48.988;8.450;2022-09-06T06:18:43;18.10;99.90
21815;DHT22;11069;48.988;8.450;2022-09-06T06:21:21;18.20;99.90
21815;DHT22;11069;48.988;8.450;2022-09-06T06:23:50;18.20;99.90
21815;DHT22;11069;48.988;8.450;2022-09-06T06:26:17;18.30;99.90
21815;DHT22;11069;48.988;8.450;2022-09-06T06:28:43;18.40;99.90
21815;DHT22;11069;48.988;8.450;2022-09-06T06:31:10;18.50;99.90
21815;DHT22;11069;48.988;8.450;2022-09-06T06:33:39;18.50;99.90
21815;DHT22;11069;48.988;8.450;2022-09-06T06:36:06;18.50;99.90
21815;DHT22;11069;48.988;8.450;2022-09-06T06:38:34;18.40;99.90
21815;DHT22;11069;48.988;8.450;2022-09-06T06:41:00;18.40;99.90
21815;DHT22;11069;48.988;8.450;2022-09-06T06:43:26;18.50;99.90
21815;DHT22;11069;48.988;8.450;2022-09-06T06:45:52;18.60;99.90
21815;DHT22;11069;48.988;8.450;2022-09-06T06:48:18;18.60;99.90
21815;DHT22;11069;48.988;8.450;2022-09-06T06:50:44;18.70;99.90
21815;DHT22;11069;48.988;8.450;2022-09-06T06:53:10;18.90;99.90
21815;DHT22;11069;48.988;8.450;2022-09-06T06:55:35;19.10;99.90
21815;DHT22;11069;48.988;8.450;2022-09-06T06:58:01;19.30;99.90
21815;DHT22;11069;48.988;8.450;2022-09-06T07:00:27;19.50;99.90
21815;DHT22;11069;48.988;8.450;2022-09-06T07:02:53;19.70;99.90
21815;DHT22;11069;48.988;8.450;2022-09-06T07:05:23;19.80;99.90
21815;DHT22;11069;48.988;8.450;2022-09-06T07:07:49;19.80;99.90
21815;DHT22;11069;48.988;8.450;2022-09-06T07:10:14;19.90;99.90
21815;DHT22;11069;48.988;8.450;2022-09-06T07:12:40;20.30;99.90
21815;DHT22;11069;48.988;8.450;2022-09-06T07:15:06;20.80;99.90
21815;DHT22;11069;48.988;8.450;2022-09-06T07:17:32;21.10;99.90
21815;DHT22;11069;48.988;8.450;2022-09-06T07:19:59;21.40;99.90
21815;DHT22;11069;48.988;8.450;2022-09-06T07:22:24;21.50;99.90
21815;DHT22;11069;48.988;8.450;2022-09-06T07:24:50;21.90;99.90
21815;DHT22;11069;48.988;8.450;2022-09-06T07:27:16;22.20;99.90
21815;DHT22;11069;48.988;8.450;2022-09-06T07:29:41;22.70;99.90
21815;DHT22;11069;48.988;8.450;2022-09-06T07:32:07;22.90;99.90
21815;DHT22;11069;48.988;8.450;2022-09-06T07:34:33;22.90;99.90
21815;DHT22;11069;48.988;8.450;2022-09-06T07:37:02;22.80;99.90
21815;DHT22;11069;48.988;8.450;2022-09-06T07:39:28;22.60;99.90
21815;DHT22;11069;48.988;8.450;2022-09-06T07:41:54;22.60;99.90
21815;DHT22;11069;48.988;8.450;2022-09-06T07:44:19;22.30;99.90
21815;DHT22;11069;48.988;8.450;2022-09-06T07:46:45;22.30;99.90
21815;DHT22;11069;48.988;8.450;2022-09-06T07:49:11;22.10;99.90
21815;DHT22;11069;48.988;8.450;2022-09-06T07:51:36;22.20;99.90
21815;DHT22;11069;48.988;8.450;2022-09-06T07:54:02;22.60;99.90
21815;DHT22;11069;48.988;8.450;2022-09-06T07:56:28;22.70;99.90
21815;DHT22;11069;48.988;8.450;2022-09-06T07:58:55;22.60;99.90
21815;DHT22;11069;48.988;8.450;2022-09-06T08:01:31;22.90;99.90
21815;DHT22;11069;48.988;8.450;2022-09-06T08:03:58;22.90;99.90
21815;DHT22;11069;48.988;8.450;2022-09-06T08:06:25;23.20;99.90
21815;DHT22;11069;48.988;8.450;2022-09-06T08:08:52;23.70;99.90
21815;DHT22;11069;48.988;8.450;2022-09-06T08:11:19;23.80;99.90
21815;DHT22;11069;48.988;8.450;2022-09-06T08:13:48;24.10;99.90
21815;DHT22;11069;48.988;8.450;2022-09-06T08:16:15;24.00;99.90
21815;DHT22;11069;48.988;8.450;2022-09-06T08:18:41;23.90;99.90
21815;DHT22;11069;48.988;8.450;2022-09-06T08:21:11;24.10;99.90
21815;DHT22;11069;48.988;8.450;2022-09-06T08:23:44;23.90;99.90
21815;DHT22;11069;48.988;8.450;2022-09-06T08:26:10;24.20;99.90
21815;DHT22;11069;48.988;8.450;2022-09-06T08:28:36;24.60;99.90
21815;DHT22;11069;48.988;8.450;2022-09-06T08:31:09;24.80;99.90
21815;DHT22;11069;48.988;8.450;2022-09-06T08:33:36;25.00;99.90
21815;DHT22;11069;48.988;8.450;2022-09-06T08:36:02;24.80;99.90
21815;DHT22;11069;48.988;8.450;2022-09-06T08:38:28;23.90;99.90
21815;DHT22;11069;48.988;8.450;2022-09-06T08:43:50;23.70;99.90
21815;DHT22;11069;48.988;8.450;2022-09-06T08:46:18;23.90;99.90
21815;DHT22;11069;48.988;8.450;2022-09-06T08:48:46;23.20;99.90
21815;DHT22;11069;48.988;8.450;2022-09-06T08:53:52;23.70;99.90
21815;DHT22;11069;48.988;8.450;2022-09-06T08:56:23;24.20;99.90
21815;DHT22;11069;48.988;8.450;2022-09-06T08:59:10;24.70;99.90
21815;DHT22;11069;48.988;8.450;2022-09-06T09:01:58;25.10;99.90
21815;DHT22;11069;48.988;8.450;2022-09-06T09:04:29;25.60;99.90
21815;DHT22;11069;48.988;8.450;2022-09-06T09:07:47;25.50;99.90
21815;DHT22;11069;48.988;8.450;2022-09-06T09:09:54;25.80;99.90
21815;DHT22;11069;48.988;8.450;2022-09-06T09:12:22;26.30;99.90
21815;DHT22;11069;48.988;8.450;2022-09-06T09:14:52;26.40;99.90
21815;DHT22;11069;48.988;8.450;2022-09-06T09:17:23;26.20;99.90
21815;DHT22;11069;48.988;8.450;2022-09-06T09:19:49;25.80;99.90
21815;DHT22;11069;48.988;8.450;2022-09-06T09:22:17;25.60;99.90
21815;DHT22;11069;48.988;8.450;2022-09-06T09:24:47;26.00;99.90
21815;DHT22;11069;48.988;8.450;2022-09-06T09:27:15;25.90;99.90
21815;DHT22;11069;48.988;8.450;2022-09-06T09:30:09;26.20;99.90
21815;DHT22;11069;48.988;8.450;2022-09-06T09:32:43;26.50;99.90
21815;DHT22;11069;48.988;8.450;2022-09-06T09:35:36;26.70;99.90
21815;DHT22;11069;48.988;8.450;2022-09-06T09:38:12;26.90;99.90
21815;DHT22;11069;48.988;8.450;2022-09-06T09:48:38;28.00;99.90
21815;DHT22;11069;48.988;8.450;2022-09-06T09:51:24;28.20;99.90
21815;DHT22;11069;48.988;8.450;2022-09-06T09:54:01;28.40;99.90
21815;DHT22;11069;48.988;8.450;2022-09-06T09:56:42;27.70;99.90
21815;DHT22;11069;48.988;8.450;2022-09-06T09:59:24;27.60;99.90
21815;DHT22;11069;48.988;8.450;2022-09-06T10:01:56;27.60;99.90
21815;DHT22;11069;48.988;8.450;2022-09-06T10:04:43;27.80;99.90
21815;DHT22;11069;48.988;8.450;2022-09-06T10:07:21;27.70;99.90
21815;DHT22;11069;48.988;8.450;2022-09-06T10:10:06;27.80;99.90
21815;DHT22;11069;48.988;8.450;2022-09-06T10:12:40;27.90;99.90
21815;DHT22;11069;48.988;8.450;2022-09-06T10:15:11;28.00;99.90
21815;DHT22;11069;48.988;8.450;2022-09-06T10:17:55;28.30;99.90
21815;DHT22;11069;48.988;8.450;2022-09-06T10:25:57;28.60;99.90
21815;DHT22;11069;48.988;8.450;2022-09-06T10:28:32;28.60;99.60
21815;DHT22;11069;48.988;8.450;2022-09-06T10:34:02;28.30;99.40
21815;DHT22;11069;48.988;8.450;2022-09-06T10:39:47;29.00;99.90
21815;DHT22;11069;48.988;8.450;2022-09-06T10:47:54;29.30;99.90
21815;DHT22;11069;48.988;8.450;2022-09-06T10:50:23;29.60;99.90
21815;DHT22;11069;48.988;8.450;2022-09-06T10:52:51;29.70;97.90
21815;DHT22;11069;48.988;8.450;2022-09-06T10:55:18;29.20;98.10
21815;DHT22;11069;48.988;8.450;2022-09-06T10:57:48;29.40;98.50
21815;DHT22;11069;48.988;8.450;2022-09-06T11:00:16;29.00;98.10
21815;DHT22;11069;48.988;8.450;2022-09-06T11:03:23;29.20;98.60
21815;DHT22;11069;48.988;8.450;2022-09-06T11:05:55;29.70;98.10
21815;DHT22;11069;48.988;8.450;2022-09-06T11:08:30;30.10;97.80
21815;DHT22;11069;48.988;8.450;2022-09-06T11:11:03;29.80;96.40
21815;DHT22;11069;48.988;8.450;2022-09-06T11:13:31;29.70;96.90
21815;DHT22;11069;48.988;8.450;2022-09-06T11:16:10;29.90;97.00
21815;DHT22;11069;48.988;8.450;2022-09-06T11:24:11;30.00;97.00
21815;DHT22;11069;48.988;8.450;2022-09-06T11:27:04;29.80;96.80
21815;DHT22;11069;48.988;8.450;2022-09-06T11:29:39;30.10;97.20
21815;DHT22;11069;48.988;8.450;2022-09-06T11:34:56;30.80;94.50
21815;DHT22;11069;48.988;8.450;2022-09-06T11:37:28;30.70;93.30
21815;DHT22;11069;48.988;8.450;2022-09-06T11:40:24;30.30;94.30
21815;DHT22;11069;48.988;8.450;2022-09-06T11:45:51;30.60;94.20
21815;DHT22;11069;48.988;8.450;2022-09-06T11:50:57;30.00;93.20
21815;DHT22;11069;48.988;8.450;2022-09-06T11:53:28;30.20;93.70
21815;DHT22;11069;48.988;8.450;2022-09-06T11:58:35;30.30;93.70
21815;DHT22;11069;48.988;8.450;2022-09-06T12:06:34;30.70;91.90
21815;DHT22;11069;48.988;8.450;2022-09-06T12:09:00;30.60;93.10
21815;DHT22;11069;48.988;8.450;2022-09-06T12:14:35;31.30;91.60
21815;DHT22;11069;48.988;8.450;2022-09-06T12:19:41;30.80;92.00
21815;DHT22;11069;48.988;8.450;2022-09-06T12:25:05;31.30;90.70
21815;DHT22;11069;48.988;8.450;2022-09-06T12:27:49;31.70;90.00
21815;DHT22;11069;48.988;8.450;2022-09-06T12:30:40;30.90;90.70
21815;DHT22;11069;48.988;8.450;2022-09-06T12:33:15;30.70;90.20
21815;DHT22;11069;48.988;8.450;2022-09-06T12:35:42;31.40;88.50
21815;DHT22;11069;48.988;8.450;2022-09-06T12:38:13;31.10;90.00
21815;DHT22;11069;48.988;8.450;2022-09-06T12:40:44;31.10;91.90
21815;DHT22;11069;48.988;8.450;2022-09-06T12:43:13;30.80;90.80
21815;DHT22;11069;48.988;8.450;2022-09-06T12:45:44;30.10;92.00
21815;DHT22;11069;48.988;8.450;2022-09-06T12:48:23;30.50;91.40
21815;DHT22;11069;48.988;8.450;2022-09-06T12:51:00;30.90;90.50
21815;DHT22;11069;48.988;8.450;2022-09-06T12:53:26;32.10;88.90
21815;DHT22;11069;48.988;8.450;2022-09-06T12:58:28;33.00;86.70
21815;DHT22;11069;48.988;8.450;2022-09-06T13:01:02;33.50;83.50
21815;DHT22;11069;48.988;8.450;2022-09-06T13:03:33;34.10;82.80
21815;DHT22;11069;48.988;8.450;2022-09-06T13:06:03;34.40;77.20
21815;DHT22;11069;48.988;8.450;2022-09-06T13:08:38;34.80;80.00
21815;DHT22;11069;48.988;8.450;2022-09-06T13:11:10;34.10;77.80
21815;DHT22;11069;48.988;8.450;2022-09-06T13:13:50;33.80;82.00
21815;DHT22;11069;48.988;8.450;2022-09-06T13:16:40;34.80;79.10
21815;DHT22;11069;48.988;8.450;2022-09-06T13:19:15;35.20;75.40
21815;DHT22;11069;48.988;8.450;2022-09-06T13:21:42;35.70;76.20
21815;DHT22;11069;48.988;8.450;2022-09-06T13:24:23;35.40;71.20
21815;DHT22;11069;48.988;8.450;2022-09-06T13:26:50;35.20;73.40
21815;DHT22;11069;48.988;8.450;2022-09-06T13:31:55;36.20;72.60
21815;DHT22;11069;48.988;8.450;2022-09-06T13:34:26;35.70;70.50
21815;DHT22;11069;48.988;8.450;2022-09-06T13:36:58;34.70;71.30
21815;DHT22;11069;48.988;8.450;2022-09-06T13:39:34;34.10;79.80
21815;DHT22;11069;48.988;8.450;2022-09-06T13:42:05;34.30;74.40
21815;DHT22;11069;48.988;8.450;2022-09-06T13:44:33;34.80;77.10
21815;DHT22;11069;48.988;8.450;2022-09-06T13:47:00;35.30;71.70
21815;DHT22;11069;48.988;8.450;2022-09-06T13:49:26;34.50;72.80
21815;DHT22;11069;48.988;8.450;2022-09-06T13:51:54;34.30;73.70
21815;DHT22;11069;48.988;8.450;2022-09-06T13:54:22;34.10;72.80
21815;DHT22;11069;48.988;8.450;2022-09-06T13:56:48;33.60;73.30
21815;DHT22;11069;48.988;8.450;2022-09-06T13:59:15;33.60;75.90
21815;DHT22;11069;48.988;8.450;2022-09-06T14:01:43;34.50;77.60
21815;DHT22;11069;48.988;8.450;2022-09-06T14:04:13;35.40;73.20
21815;DHT22;11069;48.988;8.450;2022-09-06T14:06:39;36.60;69.90
21815;DHT22;11069;48.988;8.450;2022-09-06T14:09:05;36.60;66.90
21815;DHT22;11069;48.988;8.450;2022-09-06T14:11:31;37.20;70.40
21815;DHT22;11069;48.988;8.450;2022-09-06T14:13:57;36.90;67.00
21815;DHT22;11069;48.988;8.450;2022-09-06T14:16:22;36.90;63.40
21815;DHT22;11069;48.988;8.450;2022-09-06T14:18:49;37.00;67.20
21815;DHT22;11069;48.988;8.450;2022-09-06T14:21:14;37.40;63.80
21815;DHT22;11069;48.988;8.450;2022-09-06T14:23:40;37.30;62.60
21815;DHT22;11069;48.988;8.450;2022-09-06T14:26:06;37.10;63.70
21815;DHT22;11069;48.988;8.450;2022-09-06T14:28:35;37.40;61.10
21815;DHT22;11069;48.988;8.450;2022-09-06T14:31:11;37.50;60.80
21815;DHT22;11069;48.988;8.450;2022-09-06T14:33:37;37.10;63.90
21815;DHT22;11069;48.988;8.450;2022-09-06T14:36:08;37.30;61.70
21815;DHT22;11069;48.988;8.450;2022-09-06T14:38:36;37.30;65.40
21815;DHT22;11069;48.988;8.450;2022-09-06T14:41:03;37.70;63.20
21815;DHT22;11069;48.988;8.450;2022-09-06T14:43:29;38.20;57.70
21815;DHT22;11069;48.988;8.450;2022-09-06T14:46:02;37.80;57.70
21815;DHT22;11069;48.988;8.450;2022-09-06T14:48:28;37.70;57.60
21815;DHT22;11069;48.988;8.450;2022-09-06T14:50:56;37.90;60.00
21815;DHT22;11069;48.988;8.450;2022-09-06T14:53:22;38.10;55.00
21815;DHT22;11069;48.988;8.450;2022-09-06T14:55:47;38.50;56.80
21815;DHT22;11069;48.988;8.450;2022-09-06T14:58:13;38.20;53.20
21815;DHT22;11069;48.988;8.450;2022-09-06T15:00:40;37.70;56.40
21815;DHT22;11069;48.988;8.450;2022-09-06T15:03:06;35.90;59.20
21815;DHT22;11069;48.988;8.450;2022-09-06T15:05:32;34.90;63.40
21815;DHT22;11069;48.988;8.450;2022-09-06T15:07:57;34.60;63.20
21815;DHT22;11069;48.988;8.450;2022-09-06T15:10:23;33.00;65.60
21815;DHT22;11069;48.988;8.450;2022-09-06T15:12:50;31.40;70.50
21815;DHT22;11069;48.988;8.450;2022-09-06T15:15:16;30.20;71.80
21815;DHT22;11069;48.988;8.450;2022-09-06T15:17:42;29.50;74.30
21815;DHT22;11069;48.988;8.450;2022-09-06T15:20:10;29.40;75.90
21815;DHT22;11069;48.988;8.450;2022-09-06T15:22:35;29.40;76.00
21815;DHT22;11069;48.988;8.450;2022-09-06T15:25:01;29.30;76.10
21815;DHT22;11069;48.988;8.450;2022-09-06T15:27:27;29.40;77.30
21815;DHT22;11069;48.988;8.450;2022-09-06T15:29:53;29.50;77.50
21815;DHT22;11069;48.988;8.450;2022-09-06T15:32:19;29.60;76.10
21815;DHT22;11069;48.988;8.450;2022-09-06T15:34:44;29.60;76.10
21815;DHT22;11069;48.988;8.450;2022-09-06T15:37:10;29.30;76.40
21815;DHT22;11069;48.988;8.450;2022-09-06T15:39:36;29.10;77.20
21815;DHT22;11069;48.988;8.450;2022-09-06T15:42:01;29.00;78.90
21815;DHT22;11069;48.988;8.450;2022-09-06T15:44:27;28.90;78.40
21815;DHT22;11069;48.988;8.450;2022-09-06T15:46:54;28.80;78.90
21815;DHT22;11069;48.988;8.450;2022-09-06T15:49:31;28.80;79.00
21815;DHT22;11069;48.988;8.450;2022-09-06T15:51:59;28.90;80.80
21815;DHT22;11069;48.988;8.450;2022-09-06T15:54:26;28.80;79.10
21815;DHT22;11069;48.988;8.450;2022-09-06T15:57:11;28.80;80.70
21815;DHT22;11069;48.988;8.450;2022-09-06T15:59:38;28.70;80.40
21815;DHT22;11069;48.988;8.450;2022-09-06T16:02:04;28.60;81.40
21815;DHT22;11069;48.988;8.450;2022-09-06T16:04:29;28.50;81.40
21815;DHT22;11069;48.988;8.450;2022-09-06T16:06:55;28.50;81.00
21815;DHT22;11069;48.988;8.450;2022-09-06T16:09:21;28.50;81.80
21815;DHT22;11069;48.988;8.450;2022-09-06T16:11:47;28.50;83.60
21815;DHT22;11069;48.988;8.450;2022-09-06T16:14:13;28.40;82.60
21815;DHT22;11069;48.988;8.450;2022-09-06T16:16:40;28.30;83.70
21815;DHT22;11069;48.988;8.450;2022-09-06T16:19:08;28.20;81.30
21815;DHT22;11069;48.988;8.450;2022-09-06T16:21:36;28.10;82.20
21815;DHT22;11069;48.988;8.450;2022-09-06T16:24:04;28.10;83.40
21815;DHT22;11069;48.988;8.450;2022-09-06T16:26:32;28.00;83.30
21815;DHT22;11069;48.988;8.450;2022-09-06T16:28:59;27.70;85.30
21815;DHT22;11069;48.988;8.450;2022-09-06T16:31:26;27.40;88.40
21815;DHT22;11069;48.988;8.450;2022-09-06T16:33:52;27.20;89.70
21815;DHT22;11069;48.988;8.450;2022-09-06T16:36:19;27.00;89.00
21815;DHT22;11069;48.988;8.450;2022-09-06T16:38:46;26.90;88.90
21815;DHT22;11069;48.988;8.450;2022-09-06T16:41:38;26.80;89.40
21815;DHT22;11069;48.988;8.450;2022-09-06T16:44:06;26.70;87.00
21815;DHT22;11069;48.988;8.450;2022-09-06T16:46:32;26.80;86.80
21815;DHT22;11069;48.988;8.450;2022-09-06T16:48:59;27.00;86.90
21815;DHT22;11069;48.988;8.450;2022-09-06T16:51:26;27.00;87.00
21815;DHT22;11069;48.988;8.450;2022-09-06T16:53:53;26.90;85.90
21815;DHT22;11069;48.988;8.450;2022-09-06T16:56:22;26.90;86.50
21815;DHT22;11069;48.988;8.450;2022-09-06T16:58:50;27.00;90.20
21815;DHT22;11069;48.988;8.450;2022-09-06T17:01:16;26.90;89.10
21815;DHT22;11069;48.988;8.450;2022-09-06T17:03:42;26.90;89.90
21815;DHT22;11069;48.988;8.450;2022-09-06T17:06:08;26.90;90.30
21815;DHT22;11069;48.988;8.450;2022-09-06T17:08:35;26.80;90.70
21815;DHT22;11069;48.988;8.450;2022-09-06T17:11:12;26.60;91.10
21815;DHT22;11069;48.988;8.450;2022-09-06T17:13:39;26.60;92.00
21815;DHT22;11069;48.988;8.450;2022-09-06T17:16:05;26.40;91.60
21815;DHT22;11069;48.988;8.450;2022-09-06T17:18:51;26.30;92.70